CheckWX is a tool to help pilots better visualize weather data.  It is not intended as a substitute for an official pre-flight weather briefing.

14:02:28 UTC

VGHS TAF
Dhaka
Dhaka, Bangladesh
TAF VGHS 041100Z 0412/0518 30006KT 4000 HZ SCT015 BKN100 RA/TSRA BKN008 FEW025CB OVC09 BECMG 0418/0420 16025KT 3000 HZ SCT012 BKN100 BECMG 0503/0505 30006KT 4000 HZ NSC

Apr-4@
12:00 UTC

Apr-4 @ 12:00 UTC

Apr-4@
18:00 UTC

Apr-4 @ 18:00 UTC

TAF VGHS 041100Z 0412/0518 30006KT 4000 HZ SCT015 BKN100 RA/TSRA BKN008 FEW025CB OVC09

Expired

Wind
  • 300° at 6 KTS
Conditions
Haze, Thunderstorm, Rain, Rain
Cloud Levels
  • Scattered at 1,500' AGL
  • Broken at 10,000' AGL
  • Broken at 800' AGL

Apr-4@
18:00 UTC

Apr-4 @ 18:00 UTC

Apr-5@
03:00 UTC

Apr-5 @ 03:00 UTC

BECMG 0418/0420 16025KT 3000 HZ SCT012 BKN100

Expired

Wind
  • 160° at 25 KTS
Conditions
Haze
Cloud Levels
  • Scattered at 1,200' AGL
  • Broken at 10,000' AGL

Apr-5@
03:00 UTC

Apr-5 @ 03:00 UTC

Apr-5@
18:00 UTC

Apr-5 @ 18:00 UTC

BECMG 0503/0505 30006KT 4000 HZ NSC

Becoming

Becoming Conditions expected by Sun, Apr 5, 2020 @ 05:00 UTC

Wind
  • 300° at 6 KTS
Conditions
Haze
Cloud Levels
  • No significant clouds